Bloemendaal, Netherlands
Current Conditions -  °F | °C
As of 5:55 AM on Sunday 23 Nov 2014 (Local Time) from EHAM Reporting Station
Few Clouds Few Clouds  
Wind Chill: 45°   Ceiling: Unl
Heat Index: 48°   Visibility: 4mi
Dew Point: 46°   Wind: 8mph
Humidity: 93%   Direction: 140°SE
Pressure: 30"   Gusts: NA
Location:  52.4°N, 4.62°E
Report Text: EHAM 230455Z 14007KT 7000 FEW022 09/08 Q1016 NOSIG
Loading
Personal Weather Stations






























Interactive Weather Map New forecast layout! Learn more

10-Day Weather Forecast

Advertisements
Track Severe Weather on mobile